LIQW

Details ICAO LIQW
Name Sarzana Luni
Region Italy
Timezone Unknown (UTC+0.0)
Plans Departing 6
Arriving 6
Stats Elevation 47 ft / 14 m (AMSL)
Location 44.087223° 9.988333°
Runways 1
Magnetic Variation 2.687° E
Sunrise 2018-06-19 03:37:48 UTC / 2018-06-19 03:37:48 Local
Sunset 2018-06-19 19:07:29 UTC / 2018-06-19 19:07:29 Local
Advertisement - Login to hide

Runways

ID Width Length Bearing (true) Bearing (mag) Surface Threshold Offset Overrun Length
18 75 ft / 23 m 2,955 ft / 901 m 180.00° 177.31° Asphalt 0 ft / 0 m 0 ft / 0 m
36 75 ft / 23 m 2,955 ft / 901 m 0.00° 357.31° Asphalt 0 ft / 0 m 0 ft / 0 m

Map

Weather


0- 5 10 15 20 25 30 35+ Temperature / ° C

Clouds and Precipitation
Forecast for 2018-06-19 12:00 UTC. Updated 3 hours ago

Ground ~20,000 ft ~40,000 ft Winds

METAR

LIQW 191155Z 21002KT 9999 FEW030 30/17 Q1019 RMK FEW VIS MIN 9999 WIND THR18 19005KT BLU

TAF

Not found
Warning: Do not use this data for real-world aviation or navigation. No guarantee of current accuracy is given.